createdAt,value
2017-06-24T00:02:07.999Z,95.10
2017-06-24T00:04:35.632Z,94.10
2017-06-24T00:07:03.299Z,94.50
2017-06-24T00:09:30.964Z,93.00
2017-06-24T00:11:58.896Z,90.30
2017-06-24T00:14:26.526Z,88.90
2017-06-24T00:16:54.165Z,86.10
2017-06-24T00:19:21.831Z,87.90
2017-06-24T00:21:49.462Z,86.50
2017-06-24T00:24:17.437Z,85.70
2017-06-24T00:26:45.062Z,85.40
2017-06-24T00:29:12.698Z,90.00
2017-06-24T00:31:40.367Z,90.10
2017-06-24T00:34:08.020Z,88.90
2017-06-24T00:36:36.903Z,87.20
2017-06-24T00:39:04.546Z,88.70
2017-06-24T00:41:32.174Z,89.60
2017-06-24T00:43:59.839Z,90.80
2017-06-24T00:46:27.481Z,90.30
2017-06-24T00:48:55.559Z,91.60
2017-06-24T00:51:23.198Z,92.20
2017-06-24T00:53:50.851Z,92.20
2017-06-24T00:56:18.511Z,93.50
2017-06-24T00:58:46.154Z,92.20
2017-06-24T01:01:15.095Z,93.80
2017-06-24T01:03:42.823Z,94.10
2017-06-24T01:06:10.466Z,94.60
2017-06-24T01:08:38.127Z,94.60
2017-06-24T01:11:05.765Z,91.30
2017-06-24T01:13:33.715Z,94.10
2017-06-24T01:16:01.350Z,92.90
2017-06-24T01:18:29.756Z,89.40
2017-06-24T01:20:57.430Z,89.30
2017-06-24T01:23:25.074Z,86.00
2017-06-24T01:25:52.991Z,88.00
2017-06-24T01:28:20.630Z,89.10
2017-06-24T01:30:48.263Z,87.50
2017-06-24T01:33:15.931Z,91.50
2017-06-24T01:35:43.564Z,93.50
2017-06-24T01:38:11.516Z,94.10
2017-06-24T01:40:39.161Z,94.80
2017-06-24T01:43:06.803Z,94.50
2017-06-24T01:45:34.508Z,95.00
2017-06-24T01:48:02.147Z,95.60
2017-06-24T01:50:30.051Z,95.70
2017-06-24T01:52:57.686Z,88.80
2017-06-24T01:55:26.091Z,93.00
2017-06-24T01:57:53.766Z,93.00
2017-06-24T02:00:21.398Z,91.30
2017-06-24T02:02:49.332Z,86.50
2017-06-24T02:05:16.971Z,88.60
2017-06-24T02:07:44.607Z,90.10
2017-06-24T02:10:12.270Z,90.00
2017-06-24T02:12:39.906Z,91.00
2017-06-24T02:15:07.880Z,85.50
2017-06-24T02:17:35.506Z,82.80
2017-06-24T02:20:03.150Z,89.10
2017-06-24T02:22:30.814Z,89.30
2017-06-24T02:24:58.448Z,85.00
2017-06-24T02:27:26.518Z,89.40
2017-06-24T02:29:54.151Z,89.00
2017-06-24T02:32:21.785Z,88.10
2017-06-24T02:34:49.467Z,86.90
2017-06-24T02:37:17.114Z,88.10
2017-06-24T02:39:45.159Z,89.00
2017-06-24T02:42:12.802Z,91.40
2017-06-24T02:44:40.436Z,92.00
2017-06-24T02:47:08.108Z,92.70
2017-06-24T02:49:35.752Z,92.40
2017-06-24T02:52:03.697Z,92.80
2017-06-24T02:54:31.331Z,92.90
2017-06-24T02:56:58.972Z,92.20
2017-06-24T02:59:26.634Z,92.20
2017-06-24T03:01:54.281Z,93.50
2017-06-24T03:04:22.235Z,93.30
2017-06-24T03:06:49.868Z,93.20
2017-06-24T03:09:17.506Z,93.10
2017-06-24T03:11:45.173Z,93.10
2017-06-24T03:14:12.807Z,93.40
2017-06-24T03:16:40.485Z,93.70
2017-06-24T03:19:08.124Z,92.90
2017-06-24T03:21:36.069Z,92.90
2017-06-24T03:24:03.703Z,94.00
2017-06-24T03:26:31.342Z,93.60
2017-06-24T03:28:59.021Z,94.40
2017-06-24T03:31:26.654Z,93.60
2017-06-24T03:33:54.615Z,94.20
2017-06-24T03:36:22.257Z,92.30
2017-06-24T03:38:49.895Z,89.80
2017-06-24T03:41:17.571Z,90.60
2017-06-24T03:43:45.215Z,92.00
2017-06-24T03:46:13.123Z,92.00
2017-06-24T03:48:40.758Z,91.60
2017-06-24T03:51:08.392Z,92.10
2017-06-24T03:53:36.060Z,91.60
2017-06-24T03:56:03.701Z,92.20
2017-06-24T03:58:31.626Z,92.80
2017-06-24T04:00:59.255Z,92.50
2017-06-24T04:03:26.898Z,91.90
2017-06-24T04:05:54.568Z,93.20
2017-06-24T04:08:22.201Z,92.60
2017-06-24T04:10:50.143Z,92.70
2017-06-24T04:13:17.785Z,92.20
2017-06-24T04:15:45.423Z,92.00
2017-06-24T04:18:13.117Z,93.10
2017-06-24T04:20:41.520Z,91.60
2017-06-24T04:23:09.595Z,91.70
2017-06-24T04:25:37.231Z,90.40
2017-06-24T04:28:04.880Z,91.10
2017-06-24T04:30:32.549Z,90.50
2017-06-24T04:33:00.192Z,88.00
2017-06-24T04:35:28.244Z,84.60
2017-06-24T04:37:55.878Z,87.50
2017-06-24T04:40:23.523Z,88.60
2017-06-24T04:42:51.197Z,83.00
2017-06-24T04:45:18.840Z,84.10
2017-06-24T04:47:46.779Z,78.10
2017-06-24T04:50:14.404Z,77.30
2017-06-24T04:52:42.049Z,73.50
2017-06-24T04:55:10.470Z,73.40
2017-06-24T04:57:38.082Z,73.20
2017-06-24T05:00:06.087Z,72.70
2017-06-24T05:02:33.934Z,67.60
2017-06-24T05:05:01.552Z,65.10
2017-06-24T05:07:29.189Z,63.50
2017-06-24T05:09:56.827Z,63.60
2017-06-24T05:12:24.790Z,61.90
2017-06-24T05:14:52.404Z,60.80
2017-06-24T05:17:20.940Z,58.30
2017-06-24T05:19:48.598Z,58.30
2017-06-24T05:22:16.219Z,57.00
2017-06-24T05:24:44.138Z,57.60
2017-06-24T05:27:11.747Z,57.50
2017-06-24T05:29:39.366Z,60.90
2017-06-24T05:32:07.000Z,55.60
2017-06-24T05:34:34.618Z,54.50
2017-06-24T05:37:02.608Z,54.90
2017-06-24T05:39:30.231Z,55.80
2017-06-24T05:41:57.831Z,54.60
2017-06-24T05:44:25.515Z,53.40
2017-06-24T05:46:53.125Z,50.60
2017-06-24T05:49:21.122Z,54.50
2017-06-24T05:51:48.734Z,52.60
2017-06-24T05:54:17.119Z,53.70
2017-06-24T05:56:44.758Z,54.10
2017-06-24T05:59:13.138Z,49.10
2017-06-24T06:01:41.090Z,49.00
2017-06-24T06:04:10.316Z,51.10
2017-06-24T06:06:39.446Z,49.40
2017-06-24T06:09:07.204Z,46.30
2017-06-24T06:11:36.181Z,47.10
2017-06-24T06:14:05.473Z,45.60
2017-06-24T06:16:33.290Z,45.60
2017-06-24T06:19:01.668Z,41.30
2017-06-24T06:21:29.299Z,41.20
2017-06-24T06:23:57.662Z,42.80
2017-06-24T06:26:26.362Z,39.90
2017-06-24T06:28:53.963Z,39.50
2017-06-24T06:31:21.562Z,37.30
2017-06-24T06:33:49.230Z,37.70
2017-06-24T06:36:16.829Z,37.50
2017-06-24T06:38:44.821Z,35.30
2017-06-24T06:41:12.452Z,34.50
2017-06-24T06:43:40.046Z,34.40
2017-06-24T06:46:07.680Z,36.20
2017-06-24T06:48:35.294Z,34.20
2017-06-24T06:51:03.340Z,30.40
2017-06-24T06:53:33.435Z,30.20
2017-06-24T06:56:01.035Z,30.20
2017-06-24T06:58:28.669Z,30.60
2017-06-24T07:00:56.317Z,31.30
2017-06-24T07:03:24.327Z,28.00
2017-06-24T07:05:52.004Z,27.70
2017-06-24T07:08:19.595Z,30.50
2017-06-24T07:10:47.216Z,28.20
2017-06-24T07:13:14.815Z,31.40
2017-06-24T07:15:42.764Z,32.40
2017-06-24T07:18:10.367Z,30.10
2017-06-24T07:20:37.960Z,28.60
2017-06-24T07:23:05.608Z,28.60
2017-06-24T07:25:33.306Z,27.50
2017-06-24T07:28:01.305Z,27.60
2017-06-24T07:30:28.911Z,26.40
2017-06-24T07:32:56.528Z,26.60
2017-06-24T07:35:24.160Z,26.00
2017-06-24T07:37:51.762Z,25.40
2017-06-24T07:40:20.459Z,25.20
2017-06-24T07:42:48.062Z,26.30
2017-06-24T07:45:15.663Z,25.80
2017-06-24T07:47:43.300Z,26.30
2017-06-24T07:50:10.909Z,24.70
2017-06-24T07:52:38.852Z,23.20
2017-06-24T07:55:06.479Z,23.20
2017-06-24T07:57:34.075Z,25.40
2017-06-24T08:00:02.508Z,21.20
2017-06-24T08:02:30.197Z,21.10
2017-06-24T08:04:58.260Z,23.80
2017-06-24T08:07:25.971Z,23.00
2017-06-24T08:09:53.769Z,21.40
2017-06-24T08:12:21.483Z,22.90
2017-06-24T08:14:49.120Z,21.50
2017-06-24T08:17:17.985Z,22.60
2017-06-24T08:19:45.594Z,22.40
2017-06-24T08:22:13.201Z,22.10
2017-06-24T08:24:41.603Z,22.10
2017-06-24T08:27:09.496Z,22.00
2017-06-24T08:29:37.487Z,23.40
2017-06-24T08:32:05.086Z,22.20
2017-06-24T08:34:32.880Z,21.10
2017-06-24T08:37:00.683Z,19.80
2017-06-24T08:39:28.288Z,22.80
2017-06-24T08:41:56.227Z,20.00
2017-06-24T08:44:24.587Z,19.30
2017-06-24T08:46:53.521Z,18.10
2017-06-24T08:49:21.147Z,18.00
2017-06-24T08:51:48.747Z,17.50
2017-06-24T08:54:16.711Z,17.90
2017-06-24T08:56:45.070Z,16.70
2017-06-24T08:59:13.430Z,17.00
2017-06-24T09:01:41.054Z,17.00
2017-06-24T09:04:08.651Z,17.20
2017-06-24T09:06:36.534Z,17.70
2017-06-24T09:09:04.142Z,18.10
2017-06-24T09:11:31.740Z,18.60
2017-06-24T09:13:59.371Z,16.80
2017-06-24T09:16:26.966Z,17.30
2017-06-24T09:18:55.711Z,16.60
2017-06-24T09:21:23.311Z,16.60
2017-06-24T09:23:50.906Z,17.70
2017-06-24T09:26:18.541Z,17.80
2017-06-24T09:28:46.139Z,20.40
2017-06-24T09:31:14.075Z,18.40
2017-06-24T09:33:41.673Z,18.60
2017-06-24T09:36:09.271Z,19.50
2017-06-24T09:38:36.911Z,18.50
2017-06-24T09:41:05.279Z,16.60
2017-06-24T09:43:33.223Z,16.50
2017-06-24T09:46:02.678Z,16.50
2017-06-24T09:48:30.277Z,16.50
2017-06-24T09:50:57.932Z,17.80
2017-06-24T09:53:25.547Z,17.90
2017-06-24T09:55:54.241Z,18.50
2017-06-24T09:58:22.077Z,18.50
2017-06-24T10:00:49.790Z,17.90
2017-06-24T10:03:17.529Z,19.20
2017-06-24T10:05:45.123Z,18.10
2017-06-24T10:08:13.076Z,16.70
2017-06-24T10:10:40.675Z,17.90
2017-06-24T10:13:08.267Z,16.70
2017-06-24T10:15:36.910Z,17.50
2017-06-24T10:18:04.508Z,17.40
2017-06-24T10:20:32.442Z,18.40
2017-06-24T10:23:00.120Z,19.50
2017-06-24T10:25:27.776Z,17.70
2017-06-24T10:27:55.755Z,16.80
2017-06-24T10:30:23.355Z,18.30
2017-06-24T10:32:52.206Z,18.90
2017-06-24T10:35:19.850Z,17.20
2017-06-24T10:37:47.466Z,15.90
2017-06-24T10:40:15.098Z,16.30
2017-06-24T10:42:43.058Z,16.50
2017-06-24T10:45:11.187Z,16.60
2017-06-24T10:47:38.785Z,17.00
2017-06-24T10:50:06.386Z,18.70
2017-06-24T10:52:34.039Z,18.80
2017-06-24T10:55:01.647Z,18.50
2017-06-24T10:57:29.609Z,16.10
2017-06-24T10:59:57.211Z,19.90
2017-06-24T11:02:24.826Z,18.60
2017-06-24T11:04:52.898Z,19.90
2017-06-24T11:07:24.506Z,18.70
2017-06-24T11:09:52.430Z,17.20
2017-06-24T11:12:29.043Z,17.70
2017-06-24T11:14:57.126Z,18.30
2017-06-24T11:17:26.264Z,19.60
2017-06-24T11:19:55.379Z,20.00
2017-06-24T11:22:24.244Z,20.40
2017-06-24T11:24:51.847Z,17.30
2017-06-24T11:27:20.723Z,18.10
2017-06-24T11:29:48.914Z,19.30
2017-06-24T11:32:16.646Z,21.70
2017-06-24T11:34:44.330Z,20.30
2017-06-24T11:37:14.614Z,22.50
2017-06-24T11:39:42.853Z,21.80
2017-06-24T11:42:10.737Z,20.70
2017-06-24T11:44:38.392Z,20.50
2017-06-24T11:47:06.039Z,20.70
2017-06-24T11:49:34.449Z,19.30
2017-06-24T11:52:02.389Z,19.30
2017-06-24T11:54:30.020Z,20.10
2017-06-24T11:56:57.640Z,21.10
2017-06-24T11:59:25.378Z,21.80
2017-06-24T12:01:52.978Z,23.70
2017-06-24T12:04:21.002Z,22.50
2017-06-24T12:06:48.677Z,21.30
2017-06-24T12:09:17.070Z,23.10
2017-06-24T12:11:44.730Z,27.20
2017-06-24T12:14:12.330Z,24.80
2017-06-24T12:16:40.211Z,24.20
2017-06-24T12:19:07.820Z,24.00
2017-06-24T12:21:35.423Z,24.30
2017-06-24T12:24:03.079Z,25.00
2017-06-24T12:26:30.682Z,23.80
2017-06-24T12:28:58.638Z,23.50
2017-06-24T12:31:26.257Z,24.50
2017-06-24T12:33:54.622Z,24.10
2017-06-24T12:36:23.010Z,24.40
2017-06-24T12:38:50.617Z,24.40
2017-06-24T12:41:19.311Z,22.60
2017-06-24T12:43:46.930Z,22.00
2017-06-24T12:46:14.524Z,22.90
2017-06-24T12:48:42.150Z,23.60
2017-06-24T12:51:09.857Z,23.70
2017-06-24T12:53:37.747Z,24.40
2017-06-24T12:56:06.107Z,23.40
2017-06-24T12:58:33.718Z,23.30
2017-06-24T13:01:01.431Z,22.60
2017-06-24T13:03:29.139Z,23.10
2017-06-24T13:05:57.876Z,20.00
2017-06-24T13:08:25.475Z,19.70
2017-06-24T13:10:53.072Z,23.40
2017-06-24T13:13:20.723Z,25.40
2017-06-24T13:15:48.327Z,22.70
2017-06-24T13:18:16.307Z,23.90
2017-06-24T13:20:44.018Z,23.20
2017-06-24T13:23:11.623Z,20.90
2017-06-24T13:25:39.260Z,21.90
2017-06-24T13:28:06.902Z,21.40
2017-06-24T13:30:35.368Z,22.40
2017-06-24T13:33:03.049Z,23.20
2017-06-24T13:35:31.414Z,20.40
2017-06-24T13:37:59.047Z,20.30
2017-06-24T13:40:27.171Z,24.40
2017-06-24T13:42:55.081Z,21.10
2017-06-24T13:45:23.472Z,21.30
2017-06-24T13:47:51.067Z,21.30
2017-06-24T13:50:18.703Z,21.80
2017-06-24T13:52:46.303Z,21.10
2017-06-24T13:55:14.170Z,22.40
2017-06-24T13:57:41.766Z,20.50
2017-06-24T14:00:09.379Z,21.00
2017-06-24T14:02:38.083Z,22.30
2017-06-24T14:05:05.674Z,23.20
2017-06-24T14:07:33.628Z,24.40
2017-06-24T14:10:01.224Z,24.20
2017-06-24T14:12:29.779Z,25.00
2017-06-24T14:14:57.510Z,25.00
2017-06-24T14:17:25.912Z,23.70
2017-06-24T14:19:53.881Z,22.90
2017-06-24T14:22:21.537Z,21.70
2017-06-24T14:24:49.247Z,23.40
2017-06-24T14:27:17.646Z,23.10
2017-06-24T14:29:45.250Z,23.10
2017-06-24T14:32:13.951Z,23.70
2017-06-24T14:34:42.403Z,24.00
2017-06-24T14:37:10.759Z,23.00
2017-06-24T14:39:38.380Z,23.00
2017-06-24T14:42:06.027Z,22.70
2017-06-24T14:44:33.930Z,22.50
2017-06-24T14:47:01.532Z,24.90
2017-06-24T14:49:29.128Z,22.10
2017-06-24T14:51:56.761Z,23.30
2017-06-24T14:54:24.363Z,23.20
2017-06-24T14:56:52.274Z,22.10
2017-06-24T14:59:19.875Z,22.90
2017-06-24T15:01:47.474Z,22.70
2017-06-24T15:04:15.101Z,21.50
2017-06-24T15:06:42.742Z,23.70
2017-06-24T15:09:10.621Z,21.30
2017-06-24T15:11:38.215Z,21.90
2017-06-24T15:14:06.615Z,23.30
2017-06-24T15:16:34.647Z,24.90
2017-06-24T15:19:02.259Z,25.10
2017-06-24T15:21:30.258Z,23.10
2017-06-24T15:23:57.860Z,21.80
2017-06-24T15:26:25.478Z,20.90
2017-06-24T15:28:53.107Z,22.20
2017-06-24T15:31:20.699Z,20.20
2017-06-24T15:33:48.599Z,22.00
2017-06-24T15:36:17.046Z,22.20
2017-06-24T15:38:45.424Z,21.60
2017-06-24T15:41:13.331Z,21.60
2017-06-24T15:43:40.941Z,21.10
2017-06-24T15:46:09.098Z,21.50
2017-06-24T15:48:36.751Z,22.70
2017-06-24T15:51:04.377Z,19.70
2017-06-24T15:53:32.003Z,21.30
2017-06-24T15:56:00.406Z,23.00
2017-06-24T15:58:29.515Z,22.90
2017-06-24T16:00:57.910Z,23.70
2017-06-24T16:03:25.518Z,23.20
2017-06-24T16:05:53.183Z,21.20
2017-06-24T16:08:20.807Z,22.30
2017-06-24T16:10:48.845Z,23.80
2017-06-24T16:13:16.524Z,23.70
2017-06-24T16:15:44.136Z,23.20
2017-06-24T16:18:11.767Z,24.30
2017-06-24T16:20:39.374Z,23.70
2017-06-24T16:23:07.367Z,25.00
2017-06-24T16:25:34.971Z,25.90
2017-06-24T16:28:02.595Z,27.40
2017-06-24T16:30:30.225Z,27.80
2017-06-24T16:32:57.840Z,29.20
2017-06-24T16:35:26.502Z,28.60
2017-06-24T16:37:54.885Z,28.40
2017-06-24T16:40:22.495Z,28.40
2017-06-24T16:42:50.135Z,29.20
2017-06-24T16:45:17.738Z,28.20
2017-06-24T16:47:45.671Z,29.50
2017-06-24T16:50:14.043Z,30.00
2017-06-24T16:52:41.691Z,30.00
2017-06-24T16:55:09.402Z,29.80
2017-06-24T16:57:37.779Z,30.60
2017-06-24T17:00:05.750Z,30.10
2017-06-24T17:02:33.461Z,29.90
2017-06-24T17:05:01.060Z,30.80
2017-06-24T17:07:28.712Z,30.90
2017-06-24T17:09:56.343Z,31.30
2017-06-24T17:12:24.271Z,31.70
2017-06-24T17:14:52.639Z,31.90
2017-06-24T17:17:21.036Z,31.80
2017-06-24T17:19:48.678Z,31.70
2017-06-24T17:22:16.283Z,30.50
2017-06-24T17:24:45.031Z,30.50
2017-06-24T17:27:12.632Z,30.20
2017-06-24T17:29:40.247Z,31.50
2017-06-24T17:32:08.658Z,30.30
2017-06-24T17:34:36.259Z,30.10
2017-06-24T17:37:04.328Z,31.60
2017-06-24T17:39:31.941Z,31.10
2017-06-24T17:41:59.542Z,32.20
2017-06-24T17:44:27.182Z,31.00
2017-06-24T17:46:54.819Z,30.80
2017-06-24T17:49:22.783Z,30.40
2017-06-24T17:51:50.443Z,32.50
2017-06-24T17:54:18.055Z,33.20
2017-06-24T17:56:46.450Z,30.90
2017-06-24T17:59:14.070Z,30.80
2017-06-24T18:01:42.030Z,31.30
2017-06-24T18:04:09.631Z,30.90
2017-06-24T18:06:37.243Z,30.70
2017-06-24T18:09:04.880Z,30.50
2017-06-24T18:11:32.486Z,32.10
2017-06-24T18:14:00.482Z,31.00
2017-06-24T18:16:28.086Z,29.60
2017-06-24T18:18:55.722Z,30.70
2017-06-24T18:21:23.380Z,29.60
2017-06-24T18:23:51.050Z,30.50
2017-06-24T18:26:19.766Z,30.90
2017-06-24T18:28:47.378Z,30.80
2017-06-24T18:31:14.979Z,33.90
2017-06-24T18:33:42.619Z,33.10
2017-06-24T18:36:10.231Z,34.40
2017-06-24T18:38:38.177Z,31.60
2017-06-24T18:41:05.779Z,33.70
2017-06-24T18:43:33.386Z,35.10
2017-06-24T18:46:01.031Z,35.90
2017-06-24T18:48:28.635Z,35.70
2017-06-24T18:50:57.435Z,34.70
2017-06-24T18:53:25.044Z,34.50
2017-06-24T18:55:52.640Z,37.60
2017-06-24T18:58:20.314Z,37.60
2017-06-24T19:00:47.907Z,37.50
2017-06-24T19:03:15.851Z,37.50
2017-06-24T19:05:43.462Z,38.00
2017-06-24T19:08:11.071Z,39.00
2017-06-24T19:10:38.707Z,39.60
2017-06-24T19:13:06.303Z,41.10
2017-06-24T19:15:34.215Z,41.90
2017-06-24T19:18:01.821Z,43.80
2017-06-24T19:20:30.276Z,45.40
2017-06-24T19:22:57.926Z,45.40
2017-06-24T19:25:26.238Z,46.50
2017-06-24T19:27:54.207Z,45.70
2017-06-24T19:30:21.818Z,46.80
2017-06-24T19:32:49.428Z,48.00
2017-06-24T19:35:17.078Z,48.50
2017-06-24T19:37:44.682Z,48.90
2017-06-24T19:40:12.571Z,48.00
2017-06-24T19:42:40.183Z,49.60
2017-06-24T19:45:07.818Z,49.00
2017-06-24T19:47:35.495Z,48.70
2017-06-24T19:50:03.113Z,50.00
2017-06-24T19:52:31.046Z,50.50
2017-06-24T19:54:58.646Z,52.30
2017-06-24T19:57:26.256Z,51.60
2017-06-24T19:59:53.912Z,53.20
2017-06-24T20:02:21.510Z,52.60
2017-06-24T20:04:50.196Z,52.10
2017-06-24T20:07:17.814Z,52.10
2017-06-24T20:09:45.429Z,53.70
2017-06-24T20:12:13.068Z,53.80
2017-06-24T20:14:40.674Z,50.30
2017-06-24T20:17:08.563Z,54.90
2017-06-24T20:19:36.171Z,54.00
2017-06-24T20:22:04.555Z,56.60
2017-06-24T20:24:32.183Z,56.50
2017-06-24T20:26:59.818Z,57.00
2017-06-24T20:29:27.887Z,56.80
2017-06-24T20:31:55.506Z,56.40
2017-06-24T20:34:23.146Z,58.10
2017-06-24T20:36:51.566Z,60.10
2017-06-24T20:39:19.303Z,60.10
2017-06-24T20:41:46.936Z,60.30
2017-06-24T20:44:15.369Z,61.30
2017-06-24T20:46:43.775Z,63.00
2017-06-24T20:49:11.827Z,63.10
2017-06-24T20:51:39.456Z,64.90
2017-06-24T20:54:07.145Z,63.70
2017-06-24T20:56:34.843Z,64.40
2017-06-24T20:59:02.576Z,63.90
2017-06-24T21:01:31.283Z,63.70
2017-06-24T21:03:58.924Z,63.60
2017-06-24T21:06:26.582Z,64.60
2017-06-24T21:08:54.243Z,64.50
2017-06-24T21:11:21.870Z,63.90
2017-06-24T21:13:49.531Z,66.10
2017-06-24T21:16:17.195Z,66.00
2017-06-24T21:18:44.819Z,65.70
2017-06-24T21:21:12.467Z,64.00
2017-06-24T21:23:40.103Z,63.70
2017-06-24T21:26:07.750Z,63.90
2017-06-24T21:28:35.411Z,64.70
2017-06-24T21:31:03.045Z,63.80
2017-06-24T21:33:30.836Z,64.70
2017-06-24T21:35:58.601Z,65.40
2017-06-24T21:38:27.044Z,66.90
2017-06-24T21:40:54.822Z,66.10
2017-06-24T21:43:22.486Z,68.00
2017-06-24T21:45:50.166Z,68.10
2017-06-24T21:48:17.843Z,69.30
2017-06-24T21:50:45.775Z,69.70
2017-06-24T21:53:13.401Z,70.80
2017-06-24T21:55:41.039Z,71.40
2017-06-24T21:58:08.962Z,70.30
2017-06-24T22:00:37.374Z,71.00
2017-06-24T22:03:05.016Z,70.90
2017-06-24T22:05:32.974Z,71.60
2017-06-24T22:08:00.608Z,70.70
2017-06-24T22:10:28.261Z,71.60
2017-06-24T22:12:56.338Z,71.90
2017-06-24T22:15:23.975Z,72.40
2017-06-24T22:17:51.745Z,71.60
2017-06-24T22:20:19.671Z,71.90
2017-06-24T22:22:47.457Z,71.50
2017-06-24T22:25:15.198Z,71.20
2017-06-24T22:27:43.214Z,70.10
2017-06-24T22:30:10.940Z,71.30
2017-06-24T22:32:38.619Z,69.60
2017-06-24T22:35:06.596Z,70.70
2017-06-24T22:37:35.019Z,69.30
2017-06-24T22:40:02.660Z,69.30
2017-06-24T22:42:30.320Z,71.90
2017-06-24T22:44:57.950Z,70.30
2017-06-24T22:47:25.954Z,67.90
2017-06-24T22:49:53.635Z,69.70
2017-06-24T22:52:21.340Z,69.70
2017-06-24T22:54:49.040Z,67.10
2017-06-24T22:57:16.671Z,67.20
2017-06-24T22:59:44.604Z,70.30
2017-06-24T23:02:12.226Z,70.00
2017-06-24T23:04:39.861Z,70.00
2017-06-24T23:07:07.524Z,69.40
2017-06-24T23:09:35.168Z,70.80
2017-06-24T23:12:03.115Z,71.40
2017-06-24T23:14:30.744Z,72.80
2017-06-24T23:16:58.375Z,70.80
2017-06-24T23:19:26.046Z,72.80
2017-06-24T23:21:53.675Z,73.50
2017-06-24T23:24:21.702Z,71.30
2017-06-24T23:26:49.335Z,69.10
2017-06-24T23:29:16.967Z,67.40
2017-06-24T23:31:44.630Z,67.90
2017-06-24T23:34:12.259Z,70.10
2017-06-24T23:36:40.212Z,65.50
2017-06-24T23:39:07.834Z,66.70
2017-06-24T23:41:35.470Z,66.00
2017-06-24T23:44:03.130Z,64.60
2017-06-24T23:46:30.758Z,68.50
2017-06-24T23:48:58.726Z,68.50
2017-06-24T23:51:26.340Z,66.00
2017-06-24T23:53:53.976Z,66.90
2017-06-24T23:56:22.409Z,64.40
2017-06-24T23:58:50.042Z,64.30
